createdAt,value
2022-09-28T00:01:29.394Z,4.70
2022-09-28T00:03:59.766Z,3.93
2022-09-28T00:06:30.351Z,4.43
2022-09-28T00:09:01.884Z,3.50
2022-09-28T00:11:30.063Z,4.60
2022-09-28T00:14:01.453Z,4.80
2022-09-28T00:16:32.693Z,4.90
2022-09-28T00:19:01.704Z,4.33
2022-09-28T00:21:32.058Z,4.60
2022-09-28T00:24:19.227Z,5.43
2022-09-28T00:26:51.158Z,4.77
2022-09-28T00:29:24.453Z,4.60
2022-09-28T00:31:54.016Z,4.60
2022-09-28T00:34:22.348Z,4.63
2022-09-28T00:36:50.577Z,4.63
2022-09-28T00:39:20.212Z,4.77
2022-09-28T00:41:48.558Z,5.00
2022-09-28T00:44:50.296Z,4.70
2022-09-28T00:47:42.656Z,5.27
2022-09-28T00:50:18.227Z,5.50
2022-09-28T00:52:53.202Z,5.50
2022-09-28T00:55:29.307Z,5.80
2022-09-28T00:58:01.984Z,5.47
2022-09-28T01:00:30.367Z,5.93
2022-09-28T01:02:59.700Z,5.77
2022-09-28T01:05:28.882Z,6.83
2022-09-28T01:07:58.572Z,5.53
2022-09-28T01:10:29.267Z,6.50
2022-09-28T01:12:57.466Z,6.03
2022-09-28T01:15:28.068Z,6.03
2022-09-28T01:18:08.436Z,5.67
2022-09-28T01:21:02.403Z,6.07
2022-09-28T01:23:44.758Z,5.67
2022-09-28T01:26:37.663Z,5.63
2022-09-28T01:29:11.899Z,5.50
2022-09-28T01:31:46.626Z,5.80
2022-09-28T01:34:19.647Z,6.17
2022-09-28T01:36:50.663Z,5.77
2022-09-28T01:39:22.616Z,6.57
2022-09-28T01:41:54.636Z,5.77
2022-09-28T01:44:25.771Z,5.50
2022-09-28T01:47:00.859Z,5.83
2022-09-28T01:49:34.301Z,5.97
2022-09-28T01:52:08.956Z,5.43
2022-09-28T01:54:41.633Z,5.73
2022-09-28T01:57:17.188Z,6.57
2022-09-28T01:59:51.984Z,6.70
2022-09-28T02:02:25.781Z,6.43
2022-09-28T02:04:59.992Z,6.27
2022-09-28T02:07:35.588Z,6.70
2022-09-28T02:10:10.206Z,6.97
2022-09-28T02:12:44.983Z,6.90
2022-09-28T02:15:19.123Z,7.07
2022-09-28T02:17:47.599Z,7.07
2022-09-28T02:20:17.901Z,6.77
2022-09-28T02:22:50.378Z,8.40
2022-09-28T02:25:27.776Z,6.93
2022-09-28T02:28:01.734Z,6.97
2022-09-28T02:30:31.653Z,6.90
2022-09-28T02:33:03.109Z,8.13
2022-09-28T02:35:31.793Z,7.57
2022-09-28T02:38:00.127Z,8.23
2022-09-28T02:40:32.777Z,7.73
2022-09-28T02:43:13.136Z,7.53
2022-09-28T02:45:51.496Z,7.63
2022-09-28T02:48:43.905Z,7.30
2022-09-28T02:51:23.364Z,6.87
2022-09-28T02:54:27.384Z,7.43
2022-09-28T02:57:09.511Z,7.43
2022-09-28T02:59:50.510Z,8.30
2022-09-28T03:02:29.315Z,7.07
2022-09-28T03:05:07.655Z,7.10
2022-09-28T03:07:41.110Z,8.30
2022-09-28T03:10:16.096Z,7.27
2022-09-28T03:12:46.338Z,7.57
2022-09-28T03:15:22.984Z,6.80
2022-09-28T03:17:53.884Z,7.03
2022-09-28T03:20:22.326Z,7.17
2022-09-28T03:23:12.419Z,7.63
2022-09-28T03:25:38.994Z,7.47
2022-09-28T03:28:07.226Z,6.97
2022-09-28T03:30:43.461Z,7.67
2022-09-28T03:33:12.213Z,7.50
2022-09-28T03:35:40.712Z,6.97
2022-09-28T03:38:08.929Z,6.43
2022-09-28T03:40:39.480Z,6.17
2022-09-28T03:43:07.858Z,6.60
2022-09-28T03:45:36.306Z,6.70
2022-09-28T03:48:05.968Z,6.10
2022-09-28T03:50:35.512Z,6.57
2022-09-28T03:53:04.945Z,6.33
2022-09-28T03:55:33.513Z,6.10
2022-09-28T03:58:01.732Z,6.20
2022-09-28T04:00:31.026Z,5.63
2022-09-28T04:02:59.430Z,5.83
2022-09-28T04:05:30.051Z,5.73
2022-09-28T04:07:58.920Z,5.70
2022-09-28T04:10:27.627Z,6.03
2022-09-28T04:12:56.890Z,5.47
2022-09-28T04:15:25.675Z,6.10
2022-09-28T04:17:54.037Z,5.17
2022-09-28T04:20:59.285Z,6.00
2022-09-28T04:23:28.854Z,5.47
2022-09-28T04:25:57.109Z,6.03
2022-09-28T04:28:42.899Z,5.40
2022-09-28T04:31:12.850Z,5.50
2022-09-28T04:33:41.067Z,5.57
2022-09-28T04:36:11.321Z,5.90
2022-09-28T04:38:52.802Z,5.53
2022-09-28T04:41:26.536Z,5.27
2022-09-28T04:43:54.889Z,5.27
2022-09-28T04:46:26.166Z,5.03
2022-09-28T04:49:24.461Z,5.73
2022-09-28T04:52:00.148Z,4.97
2022-09-28T04:54:28.435Z,5.27
2022-09-28T04:56:58.694Z,5.17
2022-09-28T04:59:27.179Z,5.10
2022-09-28T05:01:55.467Z,5.67
2022-09-28T05:04:42.627Z,5.27
2022-09-28T05:07:31.351Z,5.40
2022-09-28T05:10:02.451Z,5.17
2022-09-28T05:12:33.531Z,4.90
2022-09-28T05:15:01.964Z,6.27
2022-09-28T05:17:30.273Z,5.20
2022-09-28T05:20:11.836Z,5.53
2022-09-28T05:22:41.627Z,5.50
2022-09-28T05:25:11.068Z,5.90
2022-09-28T05:27:56.912Z,6.07
2022-09-28T05:30:48.278Z,6.97
2022-09-28T05:33:25.539Z,6.20
2022-09-28T05:36:12.057Z,7.60
2022-09-28T05:38:41.826Z,7.07
2022-09-28T05:41:10.583Z,7.23
2022-09-28T05:43:38.929Z,6.40
2022-09-28T05:46:08.290Z,6.50
2022-09-28T05:48:39.841Z,6.47
2022-09-28T05:51:10.157Z,7.00
2022-09-28T05:53:38.373Z,7.47
2022-09-28T05:56:08.530Z,6.70
2022-09-28T05:58:39.320Z,7.10
2022-09-28T06:01:08.085Z,6.17
2022-09-28T06:03:36.435Z,8.07
2022-09-28T06:06:06.018Z,10.97
2022-09-28T06:08:34.520Z,8.70
2022-09-28T06:11:27.003Z,7.67
2022-09-28T06:13:56.435Z,6.73
2022-09-28T06:16:26.086Z,6.90
2022-09-28T06:18:54.354Z,7.23
2022-09-28T06:21:40.965Z,7.73
2022-09-28T06:24:10.682Z,6.63
2022-09-28T06:26:40.634Z,6.97
2022-09-28T06:29:09.669Z,7.23
2022-09-28T06:31:37.975Z,9.07
2022-09-28T06:34:06.197Z,7.43
2022-09-28T06:36:34.459Z,11.00
2022-09-28T06:39:03.418Z,13.03
2022-09-28T06:41:31.883Z,9.40
2022-09-28T06:44:03.837Z,10.03
2022-09-28T06:46:32.528Z,8.43
2022-09-28T06:49:19.962Z,10.23
2022-09-28T06:52:08.169Z,8.93
2022-09-28T06:54:54.594Z,11.33
2022-09-28T06:57:25.237Z,9.33
2022-09-28T06:59:54.753Z,11.47
2022-09-28T07:02:23.189Z,10.00
2022-09-28T07:05:15.007Z,11.03
2022-09-28T07:08:20.352Z,11.30
2022-09-28T07:11:06.961Z,10.77
2022-09-28T07:14:01.046Z,14.10
2022-09-28T07:16:59.208Z,12.73
2022-09-28T07:19:21.050Z,10.37
2022-09-28T07:22:00.315Z,9.97
2022-09-28T07:24:31.651Z,12.90
2022-09-28T07:27:29.490Z,11.50
2022-09-28T07:30:14.360Z,10.97
2022-09-28T07:32:59.113Z,9.97
2022-09-28T07:35:54.279Z,9.80
2022-09-28T07:38:29.377Z,10.10
2022-09-28T07:41:14.905Z,9.53
2022-09-28T07:43:51.265Z,9.47
2022-09-28T07:46:21.344Z,9.67
2022-09-28T07:48:58.431Z,9.47
2022-09-28T07:51:50.314Z,9.77
2022-09-28T07:54:31.515Z,11.10
2022-09-28T07:57:25.094Z,10.37
2022-09-28T08:00:09.134Z,9.40
2022-09-28T08:02:49.103Z,9.57
2022-09-28T08:05:24.151Z,9.83
2022-09-28T08:07:53.024Z,9.30
2022-09-28T08:10:21.557Z,10.17
2022-09-28T08:13:08.886Z,9.10
2022-09-28T08:15:40.221Z,10.63
2022-09-28T08:18:18.180Z,9.20
2022-09-28T08:21:05.672Z,8.90
2022-09-28T08:23:33.971Z,10.63
2022-09-28T08:26:02.197Z,8.00
2022-09-28T08:28:30.365Z,9.57
2022-09-28T08:31:03.823Z,7.93
2022-09-28T08:33:32.126Z,7.10
2022-09-28T08:36:20.863Z,11.20
2022-09-28T08:39:07.961Z,7.63
2022-09-28T08:42:17.118Z,7.00
2022-09-28T08:45:15.842Z,8.10
2022-09-28T08:48:32.017Z,8.10
2022-09-28T08:51:23.391Z,6.90
2022-09-28T08:54:15.628Z,7.33
2022-09-28T08:56:58.203Z,17.50
2022-09-28T08:59:29.635Z,11.30
2022-09-28T09:02:17.249Z,5.97
2022-09-28T09:04:46.022Z,22.50
2022-09-28T09:07:52.190Z,8.23
2022-09-28T09:10:48.585Z,6.10
2022-09-28T09:13:37.735Z,6.50
2022-09-28T09:16:16.319Z,5.13
2022-09-28T09:19:12.552Z,5.73
2022-09-28T09:22:15.288Z,6.33
2022-09-28T09:24:50.435Z,6.20
2022-09-28T09:27:43.477Z,5.80
2022-09-28T09:30:14.239Z,6.80
2022-09-28T09:33:06.144Z,5.17
2022-09-28T09:36:05.571Z,4.60
2022-09-28T09:39:19.911Z,5.43
2022-09-28T09:42:22.278Z,5.23
2022-09-28T09:45:29.976Z,6.10
2022-09-28T09:48:17.209Z,7.57
2022-09-28T09:50:50.724Z,6.90
2022-09-28T09:53:26.428Z,6.97
2022-09-28T09:55:59.592Z,7.57
2022-09-28T09:58:39.858Z,4.97
2022-09-28T10:01:33.731Z,4.70
2022-09-28T10:04:46.568Z,4.43
2022-09-28T10:07:26.282Z,3.70
2022-09-28T10:09:58.541Z,3.17
2022-09-28T10:12:51.197Z,3.93
2022-09-28T10:15:26.207Z,3.17
2022-09-28T10:18:13.925Z,3.97
2022-09-28T10:21:00.698Z,5.10
2022-09-28T10:23:50.226Z,6.40
2022-09-28T10:26:25.428Z,3.80
2022-09-28T10:28:58.097Z,3.17
2022-09-28T10:31:41.238Z,4.10
2022-09-28T10:34:19.055Z,3.50
2022-09-28T10:36:54.695Z,4.17
2022-09-28T10:39:30.033Z,4.37
2022-09-28T10:42:03.537Z,4.97
2022-09-28T10:44:35.674Z,4.67
2022-09-28T10:47:19.295Z,4.47
2022-09-28T10:49:51.632Z,4.50
2022-09-28T10:52:39.787Z,5.00
2022-09-28T10:55:28.798Z,5.60
2022-09-28T10:57:57.473Z,4.80
2022-09-28T11:00:34.039Z,6.20
2022-09-28T11:03:23.895Z,6.40
2022-09-28T11:05:57.510Z,6.83
2022-09-28T11:08:30.578Z,8.40
2022-09-28T11:11:12.662Z,7.30
2022-09-28T11:13:44.023Z,7.80
2022-09-28T11:16:31.761Z,7.77
2022-09-28T11:19:06.843Z,8.10
2022-09-28T11:21:43.963Z,8.80
2022-09-28T11:24:21.661Z,8.77
2022-09-28T11:26:53.742Z,9.10
2022-09-28T11:29:38.314Z,9.60
2022-09-28T11:32:27.522Z,9.40
2022-09-28T11:35:26.426Z,10.00
2022-09-28T11:38:08.564Z,9.37
2022-09-28T11:41:12.555Z,9.80
2022-09-28T11:44:06.065Z,9.63
2022-09-28T11:46:44.902Z,9.93
2022-09-28T11:49:26.909Z,9.43
2022-09-28T11:52:00.348Z,8.80
2022-09-28T11:54:36.047Z,8.90
2022-09-28T11:57:07.442Z,8.57
2022-09-28T11:59:39.880Z,8.00
2022-09-28T12:02:16.926Z,8.53
2022-09-28T12:04:55.797Z,3.40
2022-09-28T12:07:31.203Z,1.80
2022-09-28T12:10:05.333Z,1.03
2022-09-28T12:12:39.029Z,1.20
2022-09-28T12:15:17.971Z,1.00
2022-09-28T12:17:51.393Z,1.00
2022-09-28T12:20:23.955Z,1.13
2022-09-28T12:23:04.893Z,0.90
2022-09-28T12:25:40.617Z,0.90
2022-09-28T12:28:18.770Z,1.00
2022-09-28T12:30:49.992Z,1.00
2022-09-28T12:33:18.786Z,0.97
2022-09-28T12:36:03.954Z,1.50
2022-09-28T12:38:48.251Z,1.30
2022-09-28T12:41:43.073Z,1.40
2022-09-28T12:44:26.179Z,1.40
2022-09-28T12:47:10.000Z,1.10
2022-09-28T12:50:37.537Z,1.20
2022-09-28T12:52:50.679Z,1.43
2022-09-28T12:55:28.332Z,1.30
2022-09-28T12:58:01.125Z,1.10
2022-09-28T13:00:40.021Z,1.37
2022-09-28T13:03:36.036Z,1.00
2022-09-28T13:06:39.972Z,1.20
2022-09-28T13:09:20.017Z,1.20
2022-09-28T13:12:15.454Z,1.50
2022-09-28T13:15:08.697Z,1.40
2022-09-28T13:17:47.863Z,1.50
2022-09-28T13:20:31.281Z,1.30
2022-09-28T13:23:12.661Z,1.00
2022-09-28T13:25:45.290Z,1.00
2022-09-28T13:28:18.033Z,1.80
2022-09-28T13:30:47.209Z,1.67
2022-09-28T13:33:24.250Z,1.13
2022-09-28T13:35:52.557Z,4.00
2022-09-28T13:38:51.885Z,2.47
2022-09-28T13:41:24.786Z,2.27
2022-09-28T13:44:09.202Z,1.47
2022-09-28T13:46:48.909Z,1.40
2022-09-28T13:49:23.235Z,1.20
2022-09-28T13:52:05.552Z,1.87
2022-09-28T13:54:57.132Z,2.07
2022-09-28T13:57:31.440Z,1.60
2022-09-28T14:00:10.430Z,1.80
2022-09-28T14:02:45.607Z,2.20
2022-09-28T14:05:56.668Z,1.70
2022-09-28T14:08:31.880Z,3.40
2022-09-28T14:11:25.984Z,2.30
2022-09-28T14:14:02.469Z,4.57
2022-09-28T14:16:33.409Z,6.13
2022-09-28T14:19:08.097Z,4.27
2022-09-28T14:22:02.451Z,5.97
2022-09-28T14:24:43.831Z,6.23
2022-09-28T14:27:47.970Z,4.90
2022-09-28T14:30:22.498Z,5.50
2022-09-28T14:32:56.063Z,4.27
2022-09-28T14:35:33.834Z,3.40
2022-09-28T14:38:24.653Z,2.37
2022-09-28T14:41:12.503Z,3.73
2022-09-28T14:44:03.574Z,6.60
2022-09-28T14:46:34.978Z,3.10
2022-09-28T14:49:06.858Z,2.77
2022-09-28T14:52:05.807Z,1.50
2022-09-28T14:54:45.298Z,1.40
2022-09-28T14:57:19.183Z,1.17
2022-09-28T14:59:48.130Z,0.77
2022-09-28T15:02:27.484Z,0.83
2022-09-28T15:05:00.945Z,1.10
2022-09-28T15:07:34.439Z,0.90
2022-09-28T15:10:03.402Z,1.37
2022-09-28T15:12:32.501Z,1.20
2022-09-28T15:15:03.250Z,0.80
2022-09-28T15:17:39.431Z,1.13
2022-09-28T15:20:23.737Z,0.97
2022-09-28T15:22:57.059Z,0.73
2022-09-28T15:25:35.239Z,0.90
2022-09-28T15:28:18.038Z,0.70
2022-09-28T15:30:49.578Z,0.80
2022-09-28T15:33:48.769Z,0.60
2022-09-28T15:36:26.201Z,0.90
2022-09-28T15:39:01.343Z,0.83
2022-09-28T15:41:30.146Z,0.80
2022-09-28T15:44:21.045Z,0.73
2022-09-28T15:46:50.595Z,0.87
2022-09-28T15:49:26.581Z,0.80
2022-09-28T15:51:57.077Z,0.90
2022-09-28T15:54:28.506Z,1.10
2022-09-28T15:56:59.774Z,1.00
2022-09-28T15:59:31.950Z,1.00
2022-09-28T16:02:10.934Z,0.97
2022-09-28T16:04:41.629Z,1.20
2022-09-28T16:07:26.115Z,0.90
2022-09-28T16:10:33.857Z,1.30
2022-09-28T16:13:20.129Z,0.97
2022-09-28T16:15:58.065Z,1.40
2022-09-28T16:18:28.219Z,1.20
2022-09-28T16:20:58.935Z,1.30
2022-09-28T16:23:33.568Z,1.27
2022-09-28T16:26:03.800Z,1.20
2022-09-28T16:28:51.892Z,1.17
2022-09-28T16:31:28.271Z,1.37
2022-09-28T16:33:58.083Z,0.97
2022-09-28T16:36:29.882Z,0.80
2022-09-28T16:38:59.509Z,1.50
2022-09-28T16:41:30.368Z,1.03
2022-09-28T16:44:01.202Z,1.00
2022-09-28T16:46:33.791Z,1.20
2022-09-28T16:49:03.159Z,1.40
2022-09-28T16:51:31.316Z,1.27
2022-09-28T16:54:21.988Z,2.70
2022-09-28T16:56:50.177Z,1.20
2022-09-28T16:59:18.665Z,1.40
2022-09-28T17:01:47.316Z,3.80
2022-09-28T17:04:15.529Z,2.00
2022-09-28T17:06:44.203Z,1.80
2022-09-28T17:09:14.395Z,1.47
2022-09-28T17:11:42.842Z,1.70
2022-09-28T17:14:11.719Z,2.30
2022-09-28T17:17:06.767Z,1.83
2022-09-28T17:19:29.822Z,2.37
2022-09-28T17:21:57.963Z,2.27
2022-09-28T17:24:27.510Z,2.43
2022-09-28T17:26:56.095Z,2.20
2022-09-28T17:29:24.278Z,2.30
2022-09-28T17:31:52.999Z,2.23
2022-09-28T17:34:21.987Z,2.20
2022-09-28T17:36:50.281Z,2.27
2022-09-28T17:39:20.336Z,2.20
2022-09-28T17:41:49.951Z,2.60
2022-09-28T17:44:19.128Z,2.40
2022-09-28T17:46:49.543Z,2.07
2022-09-28T17:49:18.920Z,2.87
2022-09-28T17:51:47.087Z,2.40
2022-09-28T17:54:16.914Z,2.63
2022-09-28T17:56:46.103Z,2.40
2022-09-28T17:59:18.940Z,2.83
2022-09-28T18:01:48.364Z,3.27
2022-09-28T18:04:39.759Z,2.60
2022-09-28T18:07:05.481Z,2.80
2022-09-28T18:09:33.907Z,2.47
2022-09-28T18:12:05.200Z,2.37
2022-09-28T18:14:35.820Z,2.23
2022-09-28T18:17:04.488Z,1.97
2022-09-28T18:19:33.230Z,2.30
2022-09-28T18:22:01.856Z,2.10
2022-09-28T18:24:32.420Z,3.40
2022-09-28T18:27:00.831Z,4.20
2022-09-28T18:29:33.022Z,5.57
2022-09-28T18:32:03.831Z,4.53
2022-09-28T18:34:32.104Z,4.27
2022-09-28T18:37:00.393Z,4.67
2022-09-28T18:39:28.612Z,5.30
2022-09-28T18:41:56.838Z,5.73
2022-09-28T18:44:25.228Z,5.80
2022-09-28T18:46:54.491Z,7.97
2022-09-28T18:49:24.676Z,8.73
2022-09-28T18:51:52.932Z,8.00
2022-09-28T18:54:21.207Z,8.50
2022-09-28T18:56:51.238Z,6.20
2022-09-28T18:59:19.580Z,6.33
2022-09-28T19:01:47.819Z,5.60
2022-09-28T19:04:16.295Z,6.43
2022-09-28T19:06:50.493Z,7.27
2022-09-28T19:09:23.463Z,6.70
2022-09-28T19:11:51.947Z,7.97
2022-09-28T19:14:20.571Z,7.37
2022-09-28T19:16:49.584Z,7.93
2022-09-28T19:19:20.598Z,8.33
2022-09-28T19:21:50.317Z,8.70
2022-09-28T19:24:20.091Z,7.90
2022-09-28T19:26:49.071Z,7.57
2022-09-28T19:29:17.436Z,7.57
2022-09-28T19:31:49.626Z,7.50
2022-09-28T19:34:18.528Z,7.97
2022-09-28T19:36:46.810Z,7.90
2022-09-28T19:39:16.688Z,7.70
2022-09-28T19:41:49.574Z,7.30
2022-09-28T19:44:24.720Z,8.90
2022-09-28T19:46:54.772Z,8.93
2022-09-28T19:49:24.640Z,10.80
2022-09-28T19:52:12.895Z,11.50
2022-09-28T19:54:44.560Z,9.57
2022-09-28T19:57:14.558Z,11.33
2022-09-28T19:59:42.780Z,10.17
2022-09-28T20:02:11.741Z,10.17
2022-09-28T20:04:40.091Z,9.53
2022-09-28T20:07:08.314Z,9.70
2022-09-28T20:09:36.487Z,9.17
2022-09-28T20:12:06.266Z,11.83
2022-09-28T20:14:39.508Z,11.27
2022-09-28T20:17:08.814Z,10.53
2022-09-28T20:19:37.068Z,12.03
2022-09-28T20:22:05.469Z,11.47
2022-09-28T20:24:33.885Z,9.33
2022-09-28T20:27:02.875Z,10.30
2022-09-28T20:29:33.349Z,9.90
2022-09-28T20:32:03.956Z,8.23
2022-09-28T20:34:33.858Z,8.63
2022-09-28T20:37:02.583Z,9.77
2022-09-28T20:39:30.791Z,11.00
2022-09-28T20:42:00.289Z,11.13
2022-09-28T20:44:28.450Z,12.77
2022-09-28T20:46:58.264Z,11.27
2022-09-28T20:49:28.211Z,9.90
2022-09-28T20:51:56.414Z,8.77
2022-09-28T20:54:24.731Z,8.90
2022-09-28T20:56:53.036Z,8.17
2022-09-28T20:59:22.961Z,8.60
2022-09-28T21:01:51.289Z,8.40
2022-09-28T21:04:21.377Z,8.37
2022-09-28T21:06:49.602Z,9.13
2022-09-28T21:09:17.752Z,8.03
2022-09-28T21:11:46.392Z,8.10
2022-09-28T21:14:14.520Z,7.57
2022-09-28T21:16:42.691Z,8.33
2022-09-28T21:19:10.828Z,9.00
2022-09-28T21:21:40.353Z,9.60
2022-09-28T21:24:09.217Z,8.93
2022-09-28T21:26:37.772Z,9.30
2022-09-28T21:29:08.510Z,8.73
2022-09-28T21:31:40.212Z,8.80
2022-09-28T21:34:08.804Z,9.27
2022-09-28T21:36:37.015Z,8.60
2022-09-28T21:39:10.196Z,8.17
2022-09-28T21:41:38.889Z,7.57
2022-09-28T21:44:07.272Z,7.43
2022-09-28T21:46:36.452Z,6.83
2022-09-28T21:49:07.560Z,6.93
2022-09-28T21:51:36.265Z,6.60
2022-09-28T21:54:06.662Z,6.97
2022-09-28T21:56:35.306Z,7.37
2022-09-28T21:59:03.565Z,7.00
2022-09-28T22:01:31.882Z,8.13
2022-09-28T22:04:02.865Z,7.53
2022-09-28T22:06:31.012Z,7.10
2022-09-28T22:08:59.531Z,7.20
2022-09-28T22:11:30.144Z,7.43
2022-09-28T22:13:59.996Z,7.23
2022-09-28T22:16:30.697Z,7.10
2022-09-28T22:18:59.628Z,6.93
2022-09-28T22:21:29.420Z,6.27
2022-09-28T22:24:00.945Z,7.13
2022-09-28T22:26:32.083Z,6.67
2022-09-28T22:29:02.293Z,6.43
2022-09-28T22:31:32.722Z,6.70
2022-09-28T22:34:01.433Z,7.00
2022-09-28T22:36:30.232Z,7.40
2022-09-28T22:38:59.397Z,6.43
2022-09-28T22:41:28.360Z,7.10
2022-09-28T22:43:59.060Z,7.37
2022-09-28T22:46:29.263Z,7.57
2022-09-28T22:48:59.671Z,7.87
2022-09-28T22:51:29.352Z,8.47
2022-09-28T22:53:57.849Z,8.37
2022-09-28T22:56:26.435Z,7.67
2022-09-28T22:58:57.130Z,8.07
2022-09-28T23:01:28.238Z,8.57
2022-09-28T23:03:57.416Z,9.33
2022-09-28T23:06:27.787Z,9.50
2022-09-28T23:08:56.087Z,8.90
2022-09-28T23:11:24.415Z,8.33
2022-09-28T23:13:53.344Z,8.87
2022-09-28T23:16:23.588Z,8.33
2022-09-28T23:18:54.515Z,8.73
2022-09-28T23:21:24.369Z,8.80
2022-09-28T23:23:54.546Z,8.60
2022-09-28T23:26:24.519Z,8.17
2022-09-28T23:28:53.430Z,7.60
2022-09-28T23:31:23.889Z,8.17
2022-09-28T23:33:53.977Z,7.73
2022-09-28T23:36:22.206Z,8.13
2022-09-28T23:38:50.397Z,7.60
2022-09-28T23:41:19.102Z,7.57
2022-09-28T23:43:47.474Z,6.77
2022-09-28T23:46:20.519Z,7.70
2022-09-28T23:48:49.413Z,7.20
2022-09-28T23:51:19.332Z,8.03
2022-09-28T23:53:47.779Z,7.73
2022-09-28T23:56:17.383Z,7.93
2022-09-28T23:58:45.709Z,7.57
